sensor_id;sensor_type;location;lat;lon;timestamp;temperature;humidity
7958;DHT22;4024;52.172;5.378;2022-08-19T00:01:53;21.50;99.90
7958;DHT22;4024;52.172;5.378;2022-08-19T00:04:23;21.60;99.90
7958;DHT22;4024;52.172;5.378;2022-08-19T00:07:00;21.50;99.90
7958;DHT22;4024;52.172;5.378;2022-08-19T00:09:27;21.50;99.90
7958;DHT22;4024;52.172;5.378;2022-08-19T00:11:54;21.50;99.90
7958;DHT22;4024;52.172;5.378;2022-08-19T00:14:21;21.50;99.90
7958;DHT22;4024;52.172;5.378;2022-08-19T00:17:00;21.40;99.90
7958;DHT22;4024;52.172;5.378;2022-08-19T00:19:30;21.40;99.90
7958;DHT22;4024;52.172;5.378;2022-08-19T00:21:56;21.40;99.90
7958;DHT22;4024;52.172;5.378;2022-08-19T00:24:25;21.40;99.90
7958;DHT22;4024;52.172;5.378;2022-08-19T00:26:52;21.30;99.90
7958;DHT22;4024;52.172;5.378;2022-08-19T00:29:22;21.30;99.90
7958;DHT22;4024;52.172;5.378;2022-08-19T00:31:49;21.30;99.90
7958;DHT22;4024;52.172;5.378;2022-08-19T00:34:21;21.30;99.90
7958;DHT22;4024;52.172;5.378;2022-08-19T00:36:48;21.20;99.90
7958;DHT22;4024;52.172;5.378;2022-08-19T00:39:16;21.20;99.90
7958;DHT22;4024;52.172;5.378;2022-08-19T00:41:43;21.30;99.90
7958;DHT22;4024;52.172;5.378;2022-08-19T00:44:17;21.20;99.90
7958;DHT22;4024;52.172;5.378;2022-08-19T00:46:47;21.20;99.90
7958;DHT22;4024;52.172;5.378;2022-08-19T00:49:22;21.20;99.90
7958;DHT22;4024;52.172;5.378;2022-08-19T00:51:55;21.20;99.90
7958;DHT22;4024;52.172;5.378;2022-08-19T00:54:23;21.10;99.90
7958;DHT22;4024;52.172;5.378;2022-08-19T00:56:50;21.10;99.90
7958;DHT22;4024;52.172;5.378;2022-08-19T00:59:16;21.10;99.90
7958;DHT22;4024;52.172;5.378;2022-08-19T01:01:44;21.10;99.90
7958;DHT22;4024;52.172;5.378;2022-08-19T01:04:11;21.00;99.90
7958;DHT22;4024;52.172;5.378;2022-08-19T01:06:38;21.00;99.90
7958;DHT22;4024;52.172;5.378;2022-08-19T01:09:06;21.00;99.90
7958;DHT22;4024;52.172;5.378;2022-08-19T01:11:35;21.00;99.90
7958;DHT22;4024;52.172;5.378;2022-08-19T01:14:01;21.00;99.90
7958;DHT22;4024;52.172;5.378;2022-08-19T01:16:28;20.90;99.90
7958;DHT22;4024;52.172;5.378;2022-08-19T01:18:55;20.90;99.90
7958;DHT22;4024;52.172;5.378;2022-08-19T01:21:32;20.90;99.90
7958;DHT22;4024;52.172;5.378;2022-08-19T01:23:59;20.90;99.90
7958;DHT22;4024;52.172;5.378;2022-08-19T01:26:26;20.90;99.90
7958;DHT22;4024;52.172;5.378;2022-08-19T01:28:56;20.90;99.90
7958;DHT22;4024;52.172;5.378;2022-08-19T01:31:25;20.80;99.90
7958;DHT22;4024;52.172;5.378;2022-08-19T01:33:53;20.90;99.90
7958;DHT22;4024;52.172;5.378;2022-08-19T01:36:30;20.80;99.90
7958;DHT22;4024;52.172;5.378;2022-08-19T01:38:56;20.80;99.90
7958;DHT22;4024;52.172;5.378;2022-08-19T01:41:23;20.80;99.90
7958;DHT22;4024;52.172;5.378;2022-08-19T01:43:50;20.80;99.90
7958;DHT22;4024;52.172;5.378;2022-08-19T01:46:17;20.80;99.90
7958;DHT22;4024;52.172;5.378;2022-08-19T01:48:44;20.80;99.90
7958;DHT22;4024;52.172;5.378;2022-08-19T01:51:11;20.70;99.90
7958;DHT22;4024;52.172;5.378;2022-08-19T01:53:38;20.70;99.90
7958;DHT22;4024;52.172;5.378;2022-08-19T01:56:05;20.70;99.90
7958;DHT22;4024;52.172;5.378;2022-08-19T01:58:42;20.70;99.90
7958;DHT22;4024;52.172;5.378;2022-08-19T02:01:12;20.60;99.90
7958;DHT22;4024;52.172;5.378;2022-08-19T02:03:38;20.70;99.90
7958;DHT22;4024;52.172;5.378;2022-08-19T02:06:04;20.60;99.90
7958;DHT22;4024;52.172;5.378;2022-08-19T02:08:36;20.60;99.90
7958;DHT22;4024;52.172;5.378;2022-08-19T02:11:05;20.60;99.90
7958;DHT22;4024;52.172;5.378;2022-08-19T02:13:31;20.60;99.90
7958;DHT22;4024;52.172;5.378;2022-08-19T02:15:57;20.60;99.90
7958;DHT22;4024;52.172;5.378;2022-08-19T02:18:23;20.60;99.90
7958;DHT22;4024;52.172;5.378;2022-08-19T02:20:49;20.60;99.90
7958;DHT22;4024;52.172;5.378;2022-08-19T02:23:16;20.40;99.90
7958;DHT22;4024;52.172;5.378;2022-08-19T02:25:47;20.50;99.90
7958;DHT22;4024;52.172;5.378;2022-08-19T02:28:13;20.50;99.90
7958;DHT22;4024;52.172;5.378;2022-08-19T02:30:43;20.50;99.90
7958;DHT22;4024;52.172;5.378;2022-08-19T02:33:09;20.50;99.90
7958;DHT22;4024;52.172;5.378;2022-08-19T02:35:35;20.50;99.90
7958;DHT22;4024;52.172;5.378;2022-08-19T02:38:00;20.40;99.90
7958;DHT22;4024;52.172;5.378;2022-08-19T02:40:49;20.30;99.90
7958;DHT22;4024;52.172;5.378;2022-08-19T02:43:18;20.30;99.90
7958;DHT22;4024;52.172;5.378;2022-08-19T02:45:45;20.30;99.90
7958;DHT22;4024;52.172;5.378;2022-08-19T02:48:19;20.30;99.90
7958;DHT22;4024;52.172;5.378;2022-08-19T02:50:46;20.30;99.90
7958;DHT22;4024;52.172;5.378;2022-08-19T02:53:12;20.20;99.90
7958;DHT22;4024;52.172;5.378;2022-08-19T02:55:50;20.20;99.90
7958;DHT22;4024;52.172;5.378;2022-08-19T02:58:16;20.20;99.90
7958;DHT22;4024;52.172;5.378;2022-08-19T03:00:50;20.20;99.90
7958;DHT22;4024;52.172;5.378;2022-08-19T03:03:18;20.20;99.90
7958;DHT22;4024;52.172;5.378;2022-08-19T03:05:44;20.10;99.90
7958;DHT22;4024;52.172;5.378;2022-08-19T03:08:12;20.10;99.90
7958;DHT22;4024;52.172;5.378;2022-08-19T03:10:46;20.10;99.90
7958;DHT22;4024;52.172;5.378;2022-08-19T03:13:17;20.10;99.90
7958;DHT22;4024;52.172;5.378;2022-08-19T03:15:45;20.00;99.90
7958;DHT22;4024;52.172;5.378;2022-08-19T03:18:11;20.00;99.90
7958;DHT22;4024;52.172;5.378;2022-08-19T03:20:51;19.90;99.90
7958;DHT22;4024;52.172;5.378;2022-08-19T03:23:18;19.90;99.90
7958;DHT22;4024;52.172;5.378;2022-08-19T03:25:47;19.90;99.90
7958;DHT22;4024;52.172;5.378;2022-08-19T03:28:14;20.10;99.90
7958;DHT22;4024;52.172;5.378;2022-08-19T03:30:41;19.90;99.90
7958;DHT22;4024;52.172;5.378;2022-08-19T03:33:10;19.90;99.90
7958;DHT22;4024;52.172;5.378;2022-08-19T03:35:37;19.90;99.90
7958;DHT22;4024;52.172;5.378;2022-08-19T03:38:06;19.90;99.90
7958;DHT22;4024;52.172;5.378;2022-08-19T03:40:32;19.90;99.90
7958;DHT22;4024;52.172;5.378;2022-08-19T03:43:01;19.90;99.90
7958;DHT22;4024;52.172;5.378;2022-08-19T03:45:27;19.80;99.90
7958;DHT22;4024;52.172;5.378;2022-08-19T03:47:53;19.90;99.90
7958;DHT22;4024;52.172;5.378;2022-08-19T03:50:20;19.80;99.90
7958;DHT22;4024;52.172;5.378;2022-08-19T03:52:50;19.80;99.90
7958;DHT22;4024;52.172;5.378;2022-08-19T03:55:17;19.80;99.90
7958;DHT22;4024;52.172;5.378;2022-08-19T03:57:42;19.80;99.90
7958;DHT22;4024;52.172;5.378;2022-08-19T04:00:09;19.80;99.90
7958;DHT22;4024;52.172;5.378;2022-08-19T04:02:35;19.80;99.90
7958;DHT22;4024;52.172;5.378;2022-08-19T04:05:01;19.80;99.90
7958;DHT22;4024;52.172;5.378;2022-08-19T04:07:26;19.80;99.90
7958;DHT22;4024;52.172;5.378;2022-08-19T04:09:52;19.80;99.90
7958;DHT22;4024;52.172;5.378;2022-08-19T04:12:19;19.80;99.90
7958;DHT22;4024;52.172;5.378;2022-08-19T04:14:45;19.80;99.90
7958;DHT22;4024;52.172;5.378;2022-08-19T04:17:12;19.80;99.90
7958;DHT22;4024;52.172;5.378;2022-08-19T04:19:39;19.80;99.90
7958;DHT22;4024;52.172;5.378;2022-08-19T04:22:05;19.70;99.90
7958;DHT22;4024;52.172;5.378;2022-08-19T04:24:34;19.80;99.90
7958;DHT22;4024;52.172;5.378;2022-08-19T04:27:00;19.70;99.90
7958;DHT22;4024;52.172;5.378;2022-08-19T04:29:27;19.70;99.90
7958;DHT22;4024;52.172;5.378;2022-08-19T04:31:54;19.70;99.90
7958;DHT22;4024;52.172;5.378;2022-08-19T04:34:21;19.70;99.90
7958;DHT22;4024;52.172;5.378;2022-08-19T04:36:53;19.70;99.90
7958;DHT22;4024;52.172;5.378;2022-08-19T04:39:22;19.70;99.90
7958;DHT22;4024;52.172;5.378;2022-08-19T04:41:48;19.70;99.90
7958;DHT22;4024;52.172;5.378;2022-08-19T04:44:35;19.70;99.90
7958;DHT22;4024;52.172;5.378;2022-08-19T04:47:01;19.70;99.90
7958;DHT22;4024;52.172;5.378;2022-08-19T04:49:31;19.70;99.90
7958;DHT22;4024;52.172;5.378;2022-08-19T04:51:56;19.70;99.90
7958;DHT22;4024;52.172;5.378;2022-08-19T04:54:24;19.70;99.90
7958;DHT22;4024;52.172;5.378;2022-08-19T04:56:52;19.70;99.90
7958;DHT22;4024;52.172;5.378;2022-08-19T04:59:18;19.70;99.90
7958;DHT22;4024;52.172;5.378;2022-08-19T05:01:46;19.70;99.90
7958;DHT22;4024;52.172;5.378;2022-08-19T05:04:17;19.70;99.90
7958;DHT22;4024;52.172;5.378;2022-08-19T05:06:44;19.70;99.90
7958;DHT22;4024;52.172;5.378;2022-08-19T05:09:13;19.70;99.90
7958;DHT22;4024;52.172;5.378;2022-08-19T05:11:40;19.70;99.90
7958;DHT22;4024;52.172;5.378;2022-08-19T05:14:07;19.70;99.90
7958;DHT22;4024;52.172;5.378;2022-08-19T05:16:33;19.70;99.90
7958;DHT22;4024;52.172;5.378;2022-08-19T05:19:00;19.80;99.90
7958;DHT22;4024;52.172;5.378;2022-08-19T05:21:44;19.80;99.90
7958;DHT22;4024;52.172;5.378;2022-08-19T05:24:30;19.80;99.90
7958;DHT22;4024;52.172;5.378;2022-08-19T05:26:56;19.90;99.90
7958;DHT22;4024;52.172;5.378;2022-08-19T05:29:25;19.90;99.90
7958;DHT22;4024;52.172;5.378;2022-08-19T05:31:52;19.80;99.90
7958;DHT22;4024;52.172;5.378;2022-08-19T05:34:20;19.90;99.90
7958;DHT22;4024;52.172;5.378;2022-08-19T05:36:49;19.90;99.90
7958;DHT22;4024;52.172;5.378;2022-08-19T05:39:26;19.90;99.90
7958;DHT22;4024;52.172;5.378;2022-08-19T05:41:56;20.00;99.90
7958;DHT22;4024;52.172;5.378;2022-08-19T05:44:28;20.10;99.90
7958;DHT22;4024;52.172;5.378;2022-08-19T05:46:58;20.10;99.90
7958;DHT22;4024;52.172;5.378;2022-08-19T05:49:24;20.10;99.90
7958;DHT22;4024;52.172;5.378;2022-08-19T05:51:53;20.20;99.90
7958;DHT22;4024;52.172;5.378;2022-08-19T05:54:22;20.20;99.90
7958;DHT22;4024;52.172;5.378;2022-08-19T05:56:49;20.30;99.90
7958;DHT22;4024;52.172;5.378;2022-08-19T05:59:16;20.30;99.90
7958;DHT22;4024;52.172;5.378;2022-08-19T06:01:44;20.30;99.90
7958;DHT22;4024;52.172;5.378;2022-08-19T06:04:12;20.50;99.90
7958;DHT22;4024;52.172;5.378;2022-08-19T06:06:39;20.50;99.90
7958;DHT22;4024;52.172;5.378;2022-08-19T06:09:07;20.60;99.90
7958;DHT22;4024;52.172;5.378;2022-08-19T06:11:43;20.70;99.90
7958;DHT22;4024;52.172;5.378;2022-08-19T06:14:14;20.80;99.90
7958;DHT22;4024;52.172;5.378;2022-08-19T06:16:41;20.90;99.90
7958;DHT22;4024;52.172;5.378;2022-08-19T06:19:10;20.90;99.90
7958;DHT22;4024;52.172;5.378;2022-08-19T06:21:42;21.00;99.90
7958;DHT22;4024;52.172;5.378;2022-08-19T06:24:12;21.10;99.90
7958;DHT22;4024;52.172;5.378;2022-08-19T06:26:40;21.00;99.90
7958;DHT22;4024;52.172;5.378;2022-08-19T06:29:08;21.10;99.90
7958;DHT22;4024;52.172;5.378;2022-08-19T06:31:35;21.20;99.90
7958;DHT22;4024;52.172;5.378;2022-08-19T06:34:05;21.20;99.90
7958;DHT22;4024;52.172;5.378;2022-08-19T06:36:34;21.20;99.90
7958;DHT22;4024;52.172;5.378;2022-08-19T06:39:05;21.20;99.90
7958;DHT22;4024;52.172;5.378;2022-08-19T06:41:35;21.30;99.90
7958;DHT22;4024;52.172;5.378;2022-08-19T06:44:02;21.40;99.90
7958;DHT22;4024;52.172;5.378;2022-08-19T06:46:28;21.40;99.90
7958;DHT22;4024;52.172;5.378;2022-08-19T06:49:03;21.50;99.90
7958;DHT22;4024;52.172;5.378;2022-08-19T06:51:34;21.60;99.90
7958;DHT22;4024;52.172;5.378;2022-08-19T06:54:00;21.70;99.90
7958;DHT22;4024;52.172;5.378;2022-08-19T06:56:29;21.70;99.90
7958;DHT22;4024;52.172;5.378;2022-08-19T06:59:06;21.80;99.90
7958;DHT22;4024;52.172;5.378;2022-08-19T07:01:37;21.90;99.90
7958;DHT22;4024;52.172;5.378;2022-08-19T07:04:04;21.90;99.90
7958;DHT22;4024;52.172;5.378;2022-08-19T07:06:30;22.00;99.90
7958;DHT22;4024;52.172;5.378;2022-08-19T07:08:57;22.00;99.90
7958;DHT22;4024;52.172;5.378;2022-08-19T07:11:24;22.10;99.90
7958;DHT22;4024;52.172;5.378;2022-08-19T07:13:50;22.10;99.90
7958;DHT22;4024;52.172;5.378;2022-08-19T07:16:18;22.20;99.90
7958;DHT22;4024;52.172;5.378;2022-08-19T07:18:48;22.20;99.90
7958;DHT22;4024;52.172;5.378;2022-08-19T07:21:17;22.20;99.90
7958;DHT22;4024;52.172;5.378;2022-08-19T07:23:43;22.30;99.90
7958;DHT22;4024;52.172;5.378;2022-08-19T07:26:17;22.40;99.90
7958;DHT22;4024;52.172;5.378;2022-08-19T07:28:45;22.40;99.90
7958;DHT22;4024;52.172;5.378;2022-08-19T07:31:13;22.50;99.90
7958;DHT22;4024;52.172;5.378;2022-08-19T07:33:40;22.60;99.90
7958;DHT22;4024;52.172;5.378;2022-08-19T07:36:10;22.60;99.90
7958;DHT22;4024;52.172;5.378;2022-08-19T07:38:41;22.70;99.90
7958;DHT22;4024;52.172;5.378;2022-08-19T07:41:09;22.70;99.90
7958;DHT22;4024;52.172;5.378;2022-08-19T07:43:35;22.90;99.90
7958;DHT22;4024;52.172;5.378;2022-08-19T07:46:01;22.90;99.90
7958;DHT22;4024;52.172;5.378;2022-08-19T07:48:27;23.00;99.90
7958;DHT22;4024;52.172;5.378;2022-08-19T07:50:59;23.10;99.90
7958;DHT22;4024;52.172;5.378;2022-08-19T07:53:28;23.10;99.90
7958;DHT22;4024;52.172;5.378;2022-08-19T07:55:54;23.10;99.90
7958;DHT22;4024;52.172;5.378;2022-08-19T07:58:21;23.20;99.90
7958;DHT22;4024;52.172;5.378;2022-08-19T08:00:48;23.30;99.90
7958;DHT22;4024;52.172;5.378;2022-08-19T08:03:17;23.30;99.90
7958;DHT22;4024;52.172;5.378;2022-08-19T08:05:44;23.30;99.90
7958;DHT22;4024;52.172;5.378;2022-08-19T08:08:39;23.40;99.90
7958;DHT22;4024;52.172;5.378;2022-08-19T08:11:23;23.40;99.90
7958;DHT22;4024;52.172;5.378;2022-08-19T08:13:49;23.40;99.90
7958;DHT22;4024;52.172;5.378;2022-08-19T08:16:14;23.40;99.90
7958;DHT22;4024;52.172;5.378;2022-08-19T08:18:40;23.40;99.90
7958;DHT22;4024;52.172;5.378;2022-08-19T08:21:08;23.40;99.90
7958;DHT22;4024;52.172;5.378;2022-08-19T08:23:34;23.50;99.90
7958;DHT22;4024;52.172;5.378;2022-08-19T08:26:00;23.40;99.90
7958;DHT22;4024;52.172;5.378;2022-08-19T08:28:27;23.40;99.90
7958;DHT22;4024;52.172;5.378;2022-08-19T08:30:53;23.40;99.90
7958;DHT22;4024;52.172;5.378;2022-08-19T08:33:21;23.50;99.90
7958;DHT22;4024;52.172;5.378;2022-08-19T08:35:48;23.50;99.90
7958;DHT22;4024;52.172;5.378;2022-08-19T08:38:14;23.50;99.90
7958;DHT22;4024;52.172;5.378;2022-08-19T08:40:47;23.50;99.90
7958;DHT22;4024;52.172;5.378;2022-08-19T08:43:33;23.60;99.90
7958;DHT22;4024;52.172;5.378;2022-08-19T08:46:14;23.60;99.90
7958;DHT22;4024;52.172;5.378;2022-08-19T08:48:58;23.60;99.90
7958;DHT22;4024;52.172;5.378;2022-08-19T08:51:40;23.70;99.90
7958;DHT22;4024;52.172;5.378;2022-08-19T08:54:10;23.80;99.90
7958;DHT22;4024;52.172;5.378;2022-08-19T08:56:41;23.90;99.90
7958;DHT22;4024;52.172;5.378;2022-08-19T08:59:23;24.00;99.90
7958;DHT22;4024;52.172;5.378;2022-08-19T09:01:49;24.10;99.90
7958;DHT22;4024;52.172;5.378;2022-08-19T09:04:15;24.10;99.90
7958;DHT22;4024;52.172;5.378;2022-08-19T09:09:42;24.30;99.90
7958;DHT22;4024;52.172;5.378;2022-08-19T09:14:57;24.40;99.90
7958;DHT22;4024;52.172;5.378;2022-08-19T09:17:26;24.60;99.90
7958;DHT22;4024;52.172;5.378;2022-08-19T09:20:16;24.60;99.90
7958;DHT22;4024;52.172;5.378;2022-08-19T09:22:43;24.70;99.90
7958;DHT22;4024;52.172;5.378;2022-08-19T09:25:20;24.80;99.90
7958;DHT22;4024;52.172;5.378;2022-08-19T09:27:51;24.90;99.90
7958;DHT22;4024;52.172;5.378;2022-08-19T09:30:27;25.00;99.90
7958;DHT22;4024;52.172;5.378;2022-08-19T09:32:53;25.10;99.90
7958;DHT22;4024;52.172;5.378;2022-08-19T09:35:21;25.30;99.90
7958;DHT22;4024;52.172;5.378;2022-08-19T09:37:48;25.30;99.90
7958;DHT22;4024;52.172;5.378;2022-08-19T09:40:14;25.40;99.90
7958;DHT22;4024;52.172;5.378;2022-08-19T09:42:41;25.40;99.90
7958;DHT22;4024;52.172;5.378;2022-08-19T09:45:09;25.50;99.90
7958;DHT22;4024;52.172;5.378;2022-08-19T09:47:36;25.60;99.90
7958;DHT22;4024;52.172;5.378;2022-08-19T09:50:05;25.60;99.90
7958;DHT22;4024;52.172;5.378;2022-08-19T09:52:31;25.70;99.90
7958;DHT22;4024;52.172;5.378;2022-08-19T09:54:57;25.70;99.90
7958;DHT22;4024;52.172;5.378;2022-08-19T09:57:22;25.70;99.90
7958;DHT22;4024;52.172;5.378;2022-08-19T09:59:48;25.70;99.90
7958;DHT22;4024;52.172;5.378;2022-08-19T10:02:14;25.80;99.90
7958;DHT22;4024;52.172;5.378;2022-08-19T10:04:40;25.80;99.90
7958;DHT22;4024;52.172;5.378;2022-08-19T10:07:24;25.90;99.90
7958;DHT22;4024;52.172;5.378;2022-08-19T10:09:50;25.90;99.90
7958;DHT22;4024;52.172;5.378;2022-08-19T10:12:15;25.90;99.90
7958;DHT22;4024;52.172;5.378;2022-08-19T10:14:41;26.00;99.90
7958;DHT22;4024;52.172;5.378;2022-08-19T10:17:07;26.00;99.90
7958;DHT22;4024;52.172;5.378;2022-08-19T10:19:33;26.00;99.90
7958;DHT22;4024;52.172;5.378;2022-08-19T10:22:05;26.00;99.90
7958;DHT22;4024;52.172;5.378;2022-08-19T10:24:33;26.10;99.90
7958;DHT22;4024;52.172;5.378;2022-08-19T10:26:59;26.10;99.90
7958;DHT22;4024;52.172;5.378;2022-08-19T10:29:26;26.20;99.90
7958;DHT22;4024;52.172;5.378;2022-08-19T10:31:53;26.20;99.90
7958;DHT22;4024;52.172;5.378;2022-08-19T10:34:19;26.30;99.90
7958;DHT22;4024;52.172;5.378;2022-08-19T10:36:44;26.20;99.90
7958;DHT22;4024;52.172;5.378;2022-08-19T10:39:11;26.30;99.90
7958;DHT22;4024;52.172;5.378;2022-08-19T10:41:39;26.20;99.90
7958;DHT22;4024;52.172;5.378;2022-08-19T10:44:08;26.30;99.90
7958;DHT22;4024;52.172;5.378;2022-08-19T10:46:39;26.20;99.90
7958;DHT22;4024;52.172;5.378;2022-08-19T10:49:08;26.20;99.90
7958;DHT22;4024;52.172;5.378;2022-08-19T10:51:33;26.20;99.90
7958;DHT22;4024;52.172;5.378;2022-08-19T10:54:18;26.30;99.90
7958;DHT22;4024;52.172;5.378;2022-08-19T10:56:44;26.30;99.90
7958;DHT22;4024;52.172;5.378;2022-08-19T10:59:26;26.40;99.90
7958;DHT22;4024;52.172;5.378;2022-08-19T11:01:54;26.40;99.90
7958;DHT22;4024;52.172;5.378;2022-08-19T11:04:20;26.50;99.90
7958;DHT22;4024;52.172;5.378;2022-08-19T11:06:48;26.50;99.90
7958;DHT22;4024;52.172;5.378;2022-08-19T11:09:19;26.50;99.90
7958;DHT22;4024;52.172;5.378;2022-08-19T11:11:46;26.70;99.90
7958;DHT22;4024;52.172;5.378;2022-08-19T11:14:14;26.70;99.90
7958;DHT22;4024;52.172;5.378;2022-08-19T11:16:41;26.70;99.90
7958;DHT22;4024;52.172;5.378;2022-08-19T11:19:09;26.70;99.90
7958;DHT22;4024;52.172;5.378;2022-08-19T11:21:38;26.80;99.90
7958;DHT22;4024;52.172;5.378;2022-08-19T11:24:11;26.70;99.90
7958;DHT22;4024;52.172;5.378;2022-08-19T11:26:38;26.70;99.90
7958;DHT22;4024;52.172;5.378;2022-08-19T11:29:05;26.80;99.90
7958;DHT22;4024;52.172;5.378;2022-08-19T11:31:33;26.80;99.90
7958;DHT22;4024;52.172;5.378;2022-08-19T11:34:03;26.90;99.90
7958;DHT22;4024;52.172;5.378;2022-08-19T11:36:29;27.00;99.90
7958;DHT22;4024;52.172;5.378;2022-08-19T11:38:56;27.10;99.90
7958;DHT22;4024;52.172;5.378;2022-08-19T11:41:23;27.10;99.90
7958;DHT22;4024;52.172;5.378;2022-08-19T11:43:53;27.30;99.90
7958;DHT22;4024;52.172;5.378;2022-08-19T11:46:22;27.30;99.90
7958;DHT22;4024;52.172;5.378;2022-08-19T11:48:48;27.40;99.90
7958;DHT22;4024;52.172;5.378;2022-08-19T11:51:18;27.40;99.90
7958;DHT22;4024;52.172;5.378;2022-08-19T11:53:44;27.50;99.90
7958;DHT22;4024;52.172;5.378;2022-08-19T11:56:11;27.50;99.90
7958;DHT22;4024;52.172;5.378;2022-08-19T11:58:38;27.60;99.90
7958;DHT22;4024;52.172;5.378;2022-08-19T12:01:24;27.60;99.90
7958;DHT22;4024;52.172;5.378;2022-08-19T12:03:52;27.60;99.90
7958;DHT22;4024;52.172;5.378;2022-08-19T12:06:25;27.50;99.90
7958;DHT22;4024;52.172;5.378;2022-08-19T12:08:58;27.50;99.90
7958;DHT22;4024;52.172;5.378;2022-08-19T12:11:24;27.50;99.90
7958;DHT22;4024;52.172;5.378;2022-08-19T12:13:50;27.40;99.90
7958;DHT22;4024;52.172;5.378;2022-08-19T12:16:18;27.30;99.90
7958;DHT22;4024;52.172;5.378;2022-08-19T12:18:45;27.30;99.90
7958;DHT22;4024;52.172;5.378;2022-08-19T12:21:13;27.30;99.90
7958;DHT22;4024;52.172;5.378;2022-08-19T12:23:40;27.20;99.90
7958;DHT22;4024;52.172;5.378;2022-08-19T12:26:06;27.10;99.90
7958;DHT22;4024;52.172;5.378;2022-08-19T12:28:32;27.00;99.90
7958;DHT22;4024;52.172;5.378;2022-08-19T12:31:01;26.80;99.90
7958;DHT22;4024;52.172;5.378;2022-08-19T12:33:26;26.70;99.90
7958;DHT22;4024;52.172;5.378;2022-08-19T12:35:54;26.50;99.90
7958;DHT22;4024;52.172;5.378;2022-08-19T12:38:21;26.40;99.90
7958;DHT22;4024;52.172;5.378;2022-08-19T12:40:50;26.20;99.90
7958;DHT22;4024;52.172;5.378;2022-08-19T12:43:18;26.00;99.90
7958;DHT22;4024;52.172;5.378;2022-08-19T12:45:45;25.80;99.90
7958;DHT22;4024;52.172;5.378;2022-08-19T12:48:11;25.70;99.90
7958;DHT22;4024;52.172;5.378;2022-08-19T12:50:40;25.50;99.90
7958;DHT22;4024;52.172;5.378;2022-08-19T12:53:05;25.40;99.90
7958;DHT22;4024;52.172;5.378;2022-08-19T12:55:31;25.20;99.90
7958;DHT22;4024;52.172;5.378;2022-08-19T12:57:57;25.10;99.90
7958;DHT22;4024;52.172;5.378;2022-08-19T13:00:23;25.10;99.90
7958;DHT22;4024;52.172;5.378;2022-08-19T13:02:50;25.10;99.90
7958;DHT22;4024;52.172;5.378;2022-08-19T13:05:25;25.00;99.90
7958;DHT22;4024;52.172;5.378;2022-08-19T13:07:52;25.10;99.90
7958;DHT22;4024;52.172;5.378;2022-08-19T13:10:24;25.30;99.90
7958;DHT22;4024;52.172;5.378;2022-08-19T13:12:52;25.20;99.90
7958;DHT22;4024;52.172;5.378;2022-08-19T13:15:21;25.30;99.90
7958;DHT22;4024;52.172;5.378;2022-08-19T13:17:48;25.50;99.90
7958;DHT22;4024;52.172;5.378;2022-08-19T13:20:18;25.40;99.90
7958;DHT22;4024;52.172;5.378;2022-08-19T13:22:45;25.50;99.90
7958;DHT22;4024;52.172;5.378;2022-08-19T13:25:12;25.60;99.90
7958;DHT22;4024;52.172;5.378;2022-08-19T13:27:39;25.70;99.90
7958;DHT22;4024;52.172;5.378;2022-08-19T13:30:07;25.70;99.90
7958;DHT22;4024;52.172;5.378;2022-08-19T13:32:52;25.70;99.90
7958;DHT22;4024;52.172;5.378;2022-08-19T13:35:48;25.80;99.90
7958;DHT22;4024;52.172;5.378;2022-08-19T13:38:20;25.90;99.90
7958;DHT22;4024;52.172;5.378;2022-08-19T13:40:47;25.90;99.90
7958;DHT22;4024;52.172;5.378;2022-08-19T13:43:14;25.90;99.90
7958;DHT22;4024;52.172;5.378;2022-08-19T13:45:40;25.90;99.90
7958;DHT22;4024;52.172;5.378;2022-08-19T13:48:07;25.90;99.90
7958;DHT22;4024;52.172;5.378;2022-08-19T13:50:41;25.90;99.90
7958;DHT22;4024;52.172;5.378;2022-08-19T13:53:09;25.90;99.90
7958;DHT22;4024;52.172;5.378;2022-08-19T13:55:39;25.90;99.90
7958;DHT22;4024;52.172;5.378;2022-08-19T13:58:05;26.00;99.90
7958;DHT22;4024;52.172;5.378;2022-08-19T14:00:34;25.90;99.90
7958;DHT22;4024;52.172;5.378;2022-08-19T14:03:01;26.00;99.90
7958;DHT22;4024;52.172;5.378;2022-08-19T14:05:28;25.80;99.90
7958;DHT22;4024;52.172;5.378;2022-08-19T14:07:54;25.90;99.90
7958;DHT22;4024;52.172;5.378;2022-08-19T14:10:21;25.80;99.90
7958;DHT22;4024;52.172;5.378;2022-08-19T14:12:46;25.90;99.90
7958;DHT22;4024;52.172;5.378;2022-08-19T14:15:13;25.90;99.90
7958;DHT22;4024;52.172;5.378;2022-08-19T14:17:41;25.90;99.90
7958;DHT22;4024;52.172;5.378;2022-08-19T14:20:08;25.90;99.90
7958;DHT22;4024;52.172;5.378;2022-08-19T14:22:39;25.90;99.90
7958;DHT22;4024;52.172;5.378;2022-08-19T14:25:07;26.00;99.90
7958;DHT22;4024;52.172;5.378;2022-08-19T14:27:34;26.00;99.90
7958;DHT22;4024;52.172;5.378;2022-08-19T14:29:59;26.00;99.90
7958;DHT22;4024;52.172;5.378;2022-08-19T14:32:25;26.10;99.90
7958;DHT22;4024;52.172;5.378;2022-08-19T14:34:52;26.10;99.90
7958;DHT22;4024;52.172;5.378;2022-08-19T14:37:18;26.10;99.90
7958;DHT22;4024;52.172;5.378;2022-08-19T14:39:44;26.20;99.90
7958;DHT22;4024;52.172;5.378;2022-08-19T14:42:10;26.20;99.90
7958;DHT22;4024;52.172;5.378;2022-08-19T14:44:36;26.10;99.90
7958;DHT22;4024;52.172;5.378;2022-08-19T14:47:02;26.10;99.90
7958;DHT22;4024;52.172;5.378;2022-08-19T14:49:28;26.10;99.90
7958;DHT22;4024;52.172;5.378;2022-08-19T14:51:54;26.10;99.90
7958;DHT22;4024;52.172;5.378;2022-08-19T14:54:20;26.00;99.90
7958;DHT22;4024;52.172;5.378;2022-08-19T14:56:46;26.00;99.90
7958;DHT22;4024;52.172;5.378;2022-08-19T14:59:13;26.00;99.90
7958;DHT22;4024;52.172;5.378;2022-08-19T15:01:39;26.00;99.90
7958;DHT22;4024;52.172;5.378;2022-08-19T15:04:05;26.10;99.90
7958;DHT22;4024;52.172;5.378;2022-08-19T15:06:31;25.90;99.90
7958;DHT22;4024;52.172;5.378;2022-08-19T15:08:57;26.00;99.90
7958;DHT22;4024;52.172;5.378;2022-08-19T15:11:25;25.90;99.90
7958;DHT22;4024;52.172;5.378;2022-08-19T15:13:56;26.00;99.90
7958;DHT22;4024;52.172;5.378;2022-08-19T15:16:23;26.00;99.90
7958;DHT22;4024;52.172;5.378;2022-08-19T15:18:55;26.00;99.90
7958;DHT22;4024;52.172;5.378;2022-08-19T15:21:22;26.00;99.90
7958;DHT22;4024;52.172;5.378;2022-08-19T15:23:49;26.00;99.90
7958;DHT22;4024;52.172;5.378;2022-08-19T15:26:17;26.00;99.90
7958;DHT22;4024;52.172;5.378;2022-08-19T15:28:44;26.00;99.90
7958;DHT22;4024;52.172;5.378;2022-08-19T15:31:11;26.10;99.90
7958;DHT22;4024;52.172;5.378;2022-08-19T15:33:38;26.10;99.90
7958;DHT22;4024;52.172;5.378;2022-08-19T15:36:08;26.20;99.90
7958;DHT22;4024;52.172;5.378;2022-08-19T15:38:34;26.20;99.90
7958;DHT22;4024;52.172;5.378;2022-08-19T15:41:04;26.40;99.90
7958;DHT22;4024;52.172;5.378;2022-08-19T15:43:50;26.40;99.90
7958;DHT22;4024;52.172;5.378;2022-08-19T15:46:18;26.50;99.90
7958;DHT22;4024;52.172;5.378;2022-08-19T15:48:45;26.60;99.90
7958;DHT22;4024;52.172;5.378;2022-08-19T15:51:10;26.60;99.90
7958;DHT22;4024;52.172;5.378;2022-08-19T15:53:36;26.60;99.90
7958;DHT22;4024;52.172;5.378;2022-08-19T15:56:02;26.60;99.90
7958;DHT22;4024;52.172;5.378;2022-08-19T15:58:27;26.50;99.90
7958;DHT22;4024;52.172;5.378;2022-08-19T16:01:12;26.50;99.90
7958;DHT22;4024;52.172;5.378;2022-08-19T16:03:58;26.30;99.90
7958;DHT22;4024;52.172;5.378;2022-08-19T16:06:46;26.30;99.90
7958;DHT22;4024;52.172;5.378;2022-08-19T16:09:12;26.30;99.90
7958;DHT22;4024;52.172;5.378;2022-08-19T16:11:38;26.20;99.90
7958;DHT22;4024;52.172;5.378;2022-08-19T16:14:04;26.20;99.90
7958;DHT22;4024;52.172;5.378;2022-08-19T16:16:34;26.20;99.90
7958;DHT22;4024;52.172;5.378;2022-08-19T16:19:03;26.10;99.90